createdAt,value
2019-05-10T00:00:38.694Z,92.80
2019-05-10T00:03:24.659Z,92.90
2019-05-10T00:06:11.331Z,93.00
2019-05-10T00:08:44.835Z,93.10
2019-05-10T00:11:26.661Z,93.30
2019-05-10T00:14:05.680Z,93.30
2019-05-10T00:16:34.438Z,93.50
2019-05-10T00:19:02.925Z,93.70
2019-05-10T00:21:31.403Z,94.00
2019-05-10T00:23:59.868Z,94.00
2019-05-10T00:26:28.338Z,94.20
2019-05-10T00:28:57.156Z,94.30
2019-05-10T00:31:25.610Z,94.40
2019-05-10T00:33:54.406Z,94.20
2019-05-10T00:36:22.838Z,94.30
2019-05-10T00:38:51.274Z,94.10
2019-05-10T00:41:19.726Z,94.00
2019-05-10T00:43:48.172Z,93.50
2019-05-10T00:46:16.634Z,93.70
2019-05-10T00:48:45.396Z,93.80
2019-05-10T00:51:14.291Z,93.80
2019-05-10T00:53:42.714Z,93.70
2019-05-10T00:56:11.653Z,93.50
2019-05-10T00:58:40.064Z,93.50
2019-05-10T01:01:08.518Z,93.10
2019-05-10T01:03:36.949Z,93.30
2019-05-10T01:06:05.690Z,93.20
2019-05-10T01:08:34.158Z,93.30
2019-05-10T01:11:02.597Z,93.20
2019-05-10T01:13:31.322Z,93.10
2019-05-10T01:15:59.766Z,93.10
2019-05-10T01:18:28.197Z,93.10
2019-05-10T01:20:56.672Z,93.10
2019-05-10T01:23:25.094Z,93.20
2019-05-10T01:25:53.534Z,93.50
2019-05-10T01:28:21.958Z,93.60
2019-05-10T01:30:50.393Z,93.70
2019-05-10T01:33:18.838Z,93.60
2019-05-10T01:35:47.262Z,93.80
2019-05-10T01:38:15.707Z,94.10
2019-05-10T01:40:44.240Z,94.40
2019-05-10T01:43:13.086Z,93.30
2019-05-10T01:45:41.870Z,92.40
2019-05-10T01:48:10.578Z,92.60
2019-05-10T01:50:39.031Z,92.10
2019-05-10T01:53:07.486Z,92.00
2019-05-10T01:55:50.908Z,92.00
2019-05-10T01:58:06.349Z,91.60
2019-05-10T02:00:34.803Z,91.60
2019-05-10T02:03:03.235Z,91.60
2019-05-10T02:05:31.750Z,91.70
2019-05-10T02:08:00.533Z,91.80
2019-05-10T02:10:28.990Z,91.30
2019-05-10T02:12:57.451Z,91.40
2019-05-10T02:15:27.719Z,91.00
2019-05-10T02:17:56.232Z,90.80
2019-05-10T02:20:24.657Z,90.30
2019-05-10T02:22:53.100Z,90.20
2019-05-10T02:25:21.930Z,90.50
2019-05-10T02:27:50.717Z,90.60
2019-05-10T02:30:19.685Z,90.90
2019-05-10T02:32:48.131Z,90.90
2019-05-10T02:35:16.968Z,91.00
2019-05-10T02:37:45.416Z,91.20
2019-05-10T02:40:14.857Z,91.20
2019-05-10T02:42:43.648Z,91.40
2019-05-10T02:45:12.518Z,91.60
2019-05-10T02:47:41.311Z,91.80
2019-05-10T02:50:10.516Z,92.00
2019-05-10T02:52:39.315Z,92.20
2019-05-10T02:55:09.106Z,92.40
2019-05-10T02:57:38.113Z,92.40
2019-05-10T03:00:07.516Z,92.50
2019-05-10T03:02:37.033Z,92.50
2019-05-10T03:05:07.546Z,92.60
2019-05-10T03:07:38.277Z,92.70
2019-05-10T03:10:11.963Z,92.70
2019-05-10T03:12:41.622Z,92.80
2019-05-10T03:15:13.573Z,92.80
2019-05-10T03:17:42.372Z,92.80
2019-05-10T03:20:13.158Z,92.80
2019-05-10T03:22:43.979Z,92.80
2019-05-10T03:25:13.906Z,92.90
2019-05-10T03:27:42.417Z,93.00
2019-05-10T03:30:10.921Z,93.00
2019-05-10T03:32:39.664Z,93.10
2019-05-10T03:35:08.906Z,93.20
2019-05-10T03:37:37.944Z,93.50
2019-05-10T03:40:08.734Z,93.70
2019-05-10T03:42:37.575Z,93.70
2019-05-10T03:45:07.632Z,93.90
2019-05-10T03:47:36.064Z,94.00
2019-05-10T03:50:06.540Z,94.10
2019-05-10T03:52:34.963Z,94.10
2019-05-10T03:55:03.888Z,94.30
2019-05-10T03:57:32.640Z,94.40
2019-05-10T04:00:01.177Z,94.60
2019-05-10T04:02:29.661Z,94.70
2019-05-10T04:04:58.078Z,94.80
2019-05-10T04:07:26.523Z,94.90
2019-05-10T04:09:54.946Z,95.20
2019-05-10T04:12:23.391Z,95.60
2019-05-10T04:14:51.970Z,95.80
2019-05-10T04:17:20.406Z,96.00
2019-05-10T04:19:48.845Z,96.10
2019-05-10T04:22:17.668Z,96.20
2019-05-10T04:24:46.115Z,96.50
2019-05-10T04:27:30.618Z,96.60
2019-05-10T04:29:44.982Z,96.60
2019-05-10T04:32:13.818Z,96.70
2019-05-10T04:34:42.600Z,96.60
2019-05-10T04:37:11.417Z,96.50
2019-05-10T04:39:39.885Z,96.40
2019-05-10T04:42:08.314Z,96.20
2019-05-10T04:44:37.238Z,95.90
2019-05-10T04:47:05.679Z,95.20
2019-05-10T04:49:34.133Z,94.70
2019-05-10T04:52:02.883Z,94.20
2019-05-10T04:54:31.298Z,93.10
2019-05-10T04:57:00.244Z,92.70
2019-05-10T04:59:29.266Z,92.50
2019-05-10T05:01:57.726Z,91.20
2019-05-10T05:04:26.203Z,91.40
2019-05-10T05:06:54.634Z,89.90
2019-05-10T05:09:23.081Z,89.70
2019-05-10T05:11:51.524Z,90.10
2019-05-10T05:14:19.945Z,90.10
2019-05-10T05:16:51.457Z,90.10
2019-05-10T05:19:20.026Z,89.80
2019-05-10T05:21:48.834Z,89.80
2019-05-10T05:24:22.762Z,89.80
2019-05-10T05:26:47.430Z,89.80
2019-05-10T05:29:15.857Z,90.00
2019-05-10T05:31:44.306Z,89.80
2019-05-10T05:34:13.074Z,89.30
2019-05-10T05:36:41.505Z,89.70
2019-05-10T05:39:09.927Z,88.30
2019-05-10T05:41:47.654Z,87.70
2019-05-10T05:44:08.938Z,87.90
2019-05-10T05:46:37.375Z,86.70
2019-05-10T05:49:07.922Z,86.80
2019-05-10T05:51:36.642Z,86.90
2019-05-10T05:54:05.116Z,87.30
2019-05-10T05:56:33.592Z,87.20
2019-05-10T05:59:02.047Z,88.00
2019-05-10T06:01:30.484Z,87.40
2019-05-10T06:04:00.045Z,87.30
2019-05-10T06:06:29.061Z,85.40
2019-05-10T06:08:59.562Z,86.50
2019-05-10T06:11:29.829Z,86.50
2019-05-10T06:14:03.697Z,85.30
2019-05-10T06:16:28.390Z,85.00
2019-05-10T06:18:56.851Z,84.10
2019-05-10T06:21:26.779Z,84.40
2019-05-10T06:23:59.070Z,84.10
2019-05-10T06:26:28.537Z,85.20
2019-05-10T06:28:59.872Z,84.80
2019-05-10T06:31:26.833Z,84.60
2019-05-10T06:33:55.441Z,84.90
2019-05-10T06:36:23.986Z,84.60
2019-05-10T06:38:52.797Z,84.00
2019-05-10T06:41:21.233Z,84.40
2019-05-10T06:43:51.194Z,83.60
2019-05-10T06:46:29.318Z,84.40
2019-05-10T06:49:07.134Z,82.70
2019-05-10T06:51:27.133Z,83.90
2019-05-10T06:53:55.581Z,83.20
2019-05-10T06:56:30.138Z,81.50
2019-05-10T06:59:12.285Z,82.30
2019-05-10T07:01:29.498Z,79.50
2019-05-10T07:03:58.378Z,79.50
2019-05-10T07:06:44.225Z,80.10
2019-05-10T07:09:12.641Z,80.50
2019-05-10T07:11:41.083Z,80.10
2019-05-10T07:14:09.918Z,80.70
2019-05-10T07:16:38.353Z,81.20
2019-05-10T07:19:06.874Z,80.80
2019-05-10T07:21:39.038Z,80.20
2019-05-10T07:24:18.274Z,80.10
2019-05-10T07:26:43.603Z,79.30
2019-05-10T07:29:21.502Z,79.20
2019-05-10T07:31:42.293Z,78.90
2019-05-10T07:34:15.801Z,78.30
2019-05-10T07:36:40.889Z,76.90
2019-05-10T07:39:10.805Z,77.90
2019-05-10T07:41:39.372Z,78.30
2019-05-10T07:44:10.344Z,76.30
2019-05-10T07:46:40.224Z,76.60
2019-05-10T07:49:08.906Z,74.30
2019-05-10T07:51:43.245Z,75.80
2019-05-10T07:54:11.697Z,73.70
2019-05-10T07:56:45.506Z,74.00
2019-05-10T07:59:10.620Z,73.90
2019-05-10T08:01:39.039Z,73.40
2019-05-10T08:04:09.005Z,73.80
2019-05-10T08:06:44.040Z,73.80
2019-05-10T08:09:11.503Z,73.60
2019-05-10T08:11:39.953Z,73.60
2019-05-10T08:14:11.041Z,72.90
2019-05-10T08:16:38.868Z,73.90
2019-05-10T08:19:07.658Z,74.20
2019-05-10T08:21:36.466Z,72.20
2019-05-10T08:24:13.460Z,71.90
2019-05-10T08:26:35.387Z,71.20
2019-05-10T08:29:07.622Z,70.10
2019-05-10T08:31:40.620Z,71.50
2019-05-10T08:34:04.339Z,71.40
2019-05-10T08:36:37.407Z,72.10
2019-05-10T08:39:10.453Z,73.60
2019-05-10T08:41:35.465Z,72.50
2019-05-10T08:44:04.923Z,71.50
2019-05-10T08:46:41.016Z,69.70
2019-05-10T08:49:04.171Z,71.00
2019-05-10T08:51:34.463Z,72.40
2019-05-10T08:54:02.779Z,70.80
2019-05-10T08:56:33.333Z,68.40
2019-05-10T08:59:03.818Z,69.10
2019-05-10T09:01:38.756Z,71.20
2019-05-10T09:04:06.781Z,73.50
2019-05-10T09:06:37.450Z,76.00
2019-05-10T09:09:08.536Z,79.50
2019-05-10T09:11:37.209Z,78.30
2019-05-10T09:14:05.995Z,78.30
2019-05-10T09:16:43.129Z,77.80
2019-05-10T09:19:04.760Z,77.30
2019-05-10T09:21:33.177Z,78.50
2019-05-10T09:24:06.548Z,78.40
2019-05-10T09:26:34.753Z,78.90
2019-05-10T09:29:03.241Z,79.10
2019-05-10T09:31:39.394Z,77.90
2019-05-10T09:34:08.419Z,76.90
2019-05-10T09:36:37.222Z,76.70
2019-05-10T09:39:09.031Z,75.70
2019-05-10T09:41:44.735Z,75.70
2019-05-10T09:44:13.769Z,75.50
2019-05-10T09:47:04.045Z,75.80
2019-05-10T09:49:33.343Z,74.60
2019-05-10T09:52:04.637Z,76.60
2019-05-10T09:54:33.669Z,76.70
2019-05-10T09:57:02.653Z,74.30
2019-05-10T09:59:31.089Z,76.50
2019-05-10T10:01:59.536Z,72.50
2019-05-10T10:04:28.265Z,73.00
2019-05-10T10:06:57.955Z,72.80
2019-05-10T10:09:33.856Z,71.10
2019-05-10T10:11:59.276Z,71.40
2019-05-10T10:14:28.446Z,71.60
2019-05-10T10:17:00.468Z,72.30
2019-05-10T10:19:27.789Z,72.80
2019-05-10T10:21:57.634Z,73.80
2019-05-10T10:24:28.318Z,73.10
2019-05-10T10:26:58.129Z,72.30
2019-05-10T10:29:28.688Z,69.90
2019-05-10T10:31:58.993Z,71.30
2019-05-10T10:34:27.311Z,71.00
2019-05-10T10:36:58.058Z,70.90
2019-05-10T10:39:27.710Z,72.00
2019-05-10T10:41:57.129Z,72.40
2019-05-10T10:44:27.074Z,70.90
2019-05-10T10:46:58.053Z,72.10
2019-05-10T10:49:27.968Z,69.40
2019-05-10T10:51:57.394Z,70.50
2019-05-10T10:54:27.956Z,72.40
2019-05-10T10:56:59.219Z,72.40
2019-05-10T10:59:26.509Z,72.30
2019-05-10T11:02:25.145Z,71.60
2019-05-10T11:04:25.750Z,71.10
2019-05-10T11:07:09.349Z,70.90
2019-05-10T11:09:24.365Z,71.30
2019-05-10T11:12:05.113Z,70.30
2019-05-10T11:14:40.089Z,69.50
2019-05-10T11:17:03.719Z,69.30
2019-05-10T11:19:32.183Z,71.50
2019-05-10T11:22:04.426Z,70.00
2019-05-10T11:24:30.905Z,69.70
2019-05-10T11:27:01.074Z,70.00
2019-05-10T11:29:30.864Z,71.70
2019-05-10T11:32:15.292Z,70.50
2019-05-10T11:34:37.323Z,72.00
2019-05-10T11:37:01.188Z,70.50
2019-05-10T11:39:33.251Z,71.40
2019-05-10T11:42:05.208Z,70.00
2019-05-10T11:44:31.709Z,69.90
2019-05-10T11:47:01.515Z,69.60
2019-05-10T11:49:30.867Z,68.40
2019-05-10T11:52:01.472Z,69.50
2019-05-10T11:54:31.677Z,70.70
2019-05-10T11:57:06.559Z,69.20
2019-05-10T11:59:33.776Z,70.10
2019-05-10T12:07:02.751Z,71.20
2019-05-10T12:09:31.625Z,70.90
2019-05-10T12:12:03.446Z,71.50
2019-05-10T12:14:31.154Z,72.20
2019-05-10T12:17:05.605Z,71.10
2019-05-10T12:19:36.856Z,71.50
2019-05-10T12:22:04.569Z,69.60
2019-05-10T12:24:46.826Z,68.90
2019-05-10T12:25:59.688Z,70.10
2019-05-10T12:26:18.753Z,71.60
2019-05-10T12:27:25.947Z,69.30
2019-05-10T12:29:33.004Z,69.40
2019-05-10T12:32:01.455Z,71.20
2019-05-10T12:34:31.165Z,72.60
2019-05-10T12:37:03.797Z,68.30
2019-05-10T12:39:31.261Z,69.60
2019-05-10T12:41:59.690Z,70.00
2019-05-10T12:44:28.374Z,71.60
2019-05-10T12:46:57.169Z,72.50
2019-05-10T12:49:25.603Z,72.60
2019-05-10T12:51:54.059Z,72.70
2019-05-10T12:54:23.791Z,73.20
2019-05-10T12:56:53.870Z,73.90
2019-05-10T12:59:22.635Z,72.10
2019-05-10T13:01:51.076Z,71.60
2019-05-10T13:04:23.086Z,71.10
2019-05-10T13:06:49.713Z,72.20
2019-05-10T13:09:18.489Z,72.20
2019-05-10T13:11:46.926Z,71.70
2019-05-10T13:14:15.410Z,72.60
2019-05-10T13:16:45.080Z,72.00
2019-05-10T13:19:20.167Z,71.00
2019-05-10T13:21:44.067Z,70.90
2019-05-10T13:24:12.852Z,70.90
2019-05-10T13:26:41.629Z,69.90
2019-05-10T13:29:10.538Z,69.10
2019-05-10T13:31:43.013Z,68.40
2019-05-10T13:34:09.630Z,67.10
2019-05-10T13:36:39.084Z,63.70
2019-05-10T13:39:08.006Z,67.30
2019-05-10T13:41:36.450Z,68.60
2019-05-10T13:44:06.383Z,65.40
2019-05-10T13:46:34.992Z,62.90
2019-05-10T13:49:03.438Z,64.50
2019-05-10T13:51:31.876Z,62.70
2019-05-10T13:54:01.233Z,62.40
2019-05-10T13:56:30.530Z,59.60
2019-05-10T13:59:13.689Z,55.50
2019-05-10T14:01:29.570Z,54.90
2019-05-10T14:04:01.444Z,56.10
2019-05-10T14:06:28.478Z,54.10
2019-05-10T14:08:56.919Z,54.10
2019-05-10T14:11:25.360Z,57.50
2019-05-10T14:13:53.799Z,56.10
2019-05-10T14:16:22.678Z,53.00
2019-05-10T14:18:51.453Z,53.60
2019-05-10T14:21:19.981Z,53.30
2019-05-10T14:23:48.750Z,50.90
2019-05-10T14:26:18.311Z,54.60
2019-05-10T14:28:52.537Z,55.40
2019-05-10T14:31:17.366Z,56.40
2019-05-10T14:33:49.563Z,58.70
2019-05-10T14:36:15.976Z,60.20
2019-05-10T14:38:47.423Z,58.70
2019-05-10T14:41:14.597Z,60.20
2019-05-10T14:43:43.053Z,59.30
2019-05-10T14:46:13.765Z,54.40
2019-05-10T14:48:41.713Z,50.80
2019-05-10T14:51:11.731Z,51.40
2019-05-10T14:53:40.354Z,52.10
2019-05-10T14:56:14.110Z,53.20
2019-05-10T14:58:39.349Z,54.20
2019-05-10T15:01:08.238Z,55.00
2019-05-10T15:03:45.400Z,54.10
2019-05-10T15:06:06.850Z,51.70
2019-05-10T15:08:35.294Z,50.70
2019-05-10T15:11:03.763Z,50.00
2019-05-10T15:13:34.963Z,48.80
2019-05-10T15:16:02.789Z,47.40
2019-05-10T15:18:31.582Z,48.90
2019-05-10T15:21:00.031Z,47.90
2019-05-10T15:23:28.464Z,48.10
2019-05-10T15:26:03.655Z,52.60
2019-05-10T15:28:27.588Z,52.00
2019-05-10T15:30:57.728Z,53.10
2019-05-10T15:33:26.474Z,52.50
2019-05-10T15:35:54.924Z,51.00
2019-05-10T15:38:23.425Z,48.20
2019-05-10T15:40:52.209Z,49.30
2019-05-10T15:43:20.649Z,49.50
2019-05-10T15:45:52.293Z,49.00
2019-05-10T15:48:21.030Z,49.20
2019-05-10T15:50:49.521Z,49.50
2019-05-10T15:53:19.362Z,50.00
2019-05-10T15:55:48.473Z,50.20
2019-05-10T15:58:16.979Z,48.20
2019-05-10T16:00:47.084Z,47.20
2019-05-10T16:03:16.157Z,47.00
2019-05-10T16:05:58.871Z,48.10
2019-05-10T16:08:15.143Z,49.10
2019-05-10T16:10:44.010Z,49.10
2019-05-10T16:13:14.469Z,47.90
2019-05-10T16:15:43.812Z,46.80
2019-05-10T16:18:12.241Z,46.70
2019-05-10T16:20:40.722Z,48.80
2019-05-10T16:23:11.149Z,50.90
2019-05-10T16:25:42.012Z,49.70
2019-05-10T16:28:09.502Z,50.90
2019-05-10T16:30:37.940Z,53.20
2019-05-10T16:33:18.153Z,53.90
2019-05-10T16:35:49.510Z,56.30
2019-05-10T16:38:17.201Z,58.00
2019-05-10T16:40:56.790Z,58.00
2019-05-10T16:43:22.298Z,59.20
2019-05-10T16:45:46.124Z,60.20
2019-05-10T16:48:14.951Z,61.30
2019-05-10T16:50:43.734Z,60.70
2019-05-10T16:53:12.193Z,60.90
2019-05-10T16:55:42.854Z,61.70
2019-05-10T16:58:15.017Z,62.40
2019-05-10T17:00:46.041Z,58.00
2019-05-10T17:03:13.068Z,57.40
2019-05-10T17:05:52.621Z,57.50
2019-05-10T17:08:11.794Z,57.70
2019-05-10T17:10:40.694Z,57.70
2019-05-10T17:13:09.185Z,55.30
2019-05-10T17:15:39.906Z,53.10
2019-05-10T17:18:10.502Z,51.80
2019-05-10T17:20:38.289Z,52.60
2019-05-10T17:23:08.839Z,50.20
2019-05-10T17:25:40.674Z,49.70
2019-05-10T17:28:07.073Z,50.10
2019-05-10T17:30:44.877Z,51.90
2019-05-10T17:33:13.070Z,52.70
2019-05-10T17:35:51.448Z,55.00
2019-05-10T17:38:19.892Z,54.20
2019-05-10T17:40:50.003Z,57.30
2019-05-10T17:43:20.628Z,57.00
2019-05-10T17:45:48.677Z,57.60
2019-05-10T17:48:21.237Z,58.50
2019-05-10T17:50:50.064Z,59.90
2019-05-10T17:53:18.560Z,61.40
2019-05-10T17:55:49.392Z,62.00
2019-05-10T17:58:17.358Z,62.20
2019-05-10T18:00:46.646Z,63.10
2019-05-10T18:03:15.593Z,65.30
2019-05-10T18:05:52.789Z,64.00
2019-05-10T18:08:20.386Z,64.40
2019-05-10T18:10:49.173Z,64.10
2019-05-10T18:13:17.660Z,63.70
2019-05-10T18:15:46.784Z,64.10
2019-05-10T18:18:16.858Z,65.50
2019-05-10T18:20:45.305Z,66.80
2019-05-10T18:23:20.062Z,67.60
2019-05-10T18:25:43.922Z,68.20
2019-05-10T18:28:12.362Z,68.30
2019-05-10T18:30:40.789Z,68.90
2019-05-10T18:33:12.637Z,69.90
2019-05-10T18:35:41.017Z,70.30
2019-05-10T18:38:09.550Z,71.40
2019-05-10T18:40:38.021Z,72.80
2019-05-10T18:43:06.516Z,73.20
2019-05-10T18:45:35.728Z,73.10
2019-05-10T18:48:04.651Z,72.80
2019-05-10T18:50:33.093Z,72.90
2019-05-10T18:53:01.923Z,73.00
2019-05-10T18:55:30.447Z,74.00
2019-05-10T18:57:58.882Z,75.30
2019-05-10T19:00:27.451Z,75.60
2019-05-10T19:02:57.188Z,75.70
2019-05-10T19:05:31.693Z,75.90
2019-05-10T19:08:03.923Z,76.70
2019-05-10T19:10:31.614Z,76.50
2019-05-10T19:13:03.833Z,77.10
2019-05-10T19:15:30.583Z,77.40
2019-05-10T19:17:59.305Z,77.40
2019-05-10T19:20:27.746Z,78.10
2019-05-10T19:22:56.569Z,78.30
2019-05-10T19:25:25.368Z,78.80
2019-05-10T19:27:56.791Z,79.20
2019-05-10T19:30:25.587Z,79.50
2019-05-10T19:32:56.485Z,79.90
2019-05-10T19:35:29.713Z,80.20
2019-05-10T19:37:56.146Z,80.20
2019-05-10T19:40:24.590Z,80.70
2019-05-10T19:42:53.006Z,80.90
2019-05-10T19:45:21.456Z,81.00
2019-05-10T19:47:55.437Z,81.40
2019-05-10T19:50:24.330Z,81.60
2019-05-10T19:52:51.090Z,82.40
2019-05-10T19:55:21.713Z,83.00
2019-05-10T19:57:54.688Z,82.80
2019-05-10T20:00:20.965Z,82.70
2019-05-10T20:02:49.404Z,83.00
2019-05-10T20:05:17.826Z,83.20
2019-05-10T20:07:46.758Z,83.60
2019-05-10T20:10:16.031Z,83.50
2019-05-10T20:12:46.571Z,83.10
2019-05-10T20:15:15.056Z,83.20
2019-05-10T20:17:44.479Z,83.50
2019-05-10T20:20:13.835Z,83.70
2019-05-10T20:22:43.890Z,84.20
2019-05-10T20:25:12.744Z,84.40
2019-05-10T20:27:41.533Z,84.80
2019-05-10T20:30:11.026Z,85.10
2019-05-10T20:32:40.811Z,85.40
2019-05-10T20:35:09.784Z,85.40
2019-05-10T20:37:38.606Z,85.80
2019-05-10T20:40:08.629Z,86.00
2019-05-10T20:42:37.064Z,85.50
2019-05-10T20:45:09.020Z,85.70
2019-05-10T20:47:38.705Z,85.70
2019-05-10T20:50:08.720Z,86.00
2019-05-10T20:52:37.159Z,86.00
2019-05-10T20:55:06.811Z,86.40
2019-05-10T20:57:35.231Z,86.50
2019-05-10T21:00:09.614Z,86.70
2019-05-10T21:02:38.051Z,87.00
2019-05-10T21:05:07.849Z,87.20
2019-05-10T21:07:39.511Z,87.20
2019-05-10T21:10:08.604Z,87.40
2019-05-10T21:12:37.400Z,87.60
2019-05-10T21:15:07.483Z,87.60
2019-05-10T21:17:36.021Z,87.70
2019-05-10T21:20:11.385Z,88.10
2019-05-10T21:22:40.123Z,88.10
2019-05-10T21:25:09.193Z,88.80
2019-05-10T21:27:37.613Z,88.70
2019-05-10T21:30:09.666Z,90.00
2019-05-10T21:32:38.087Z,89.90
2019-05-10T21:35:06.887Z,89.70
2019-05-10T21:37:36.727Z,89.70
2019-05-10T21:40:09.040Z,89.90
2019-05-10T21:42:37.537Z,89.80
2019-05-10T21:45:06.294Z,90.10
2019-05-10T21:47:34.816Z,90.10
2019-05-10T21:50:04.317Z,90.30
2019-05-10T21:52:32.746Z,90.20
2019-05-10T21:55:01.254Z,90.80
2019-05-10T21:57:29.743Z,90.70
2019-05-10T22:00:01.391Z,90.80
2019-05-10T22:02:29.868Z,90.80
2019-05-10T22:04:58.339Z,90.80
2019-05-10T22:07:27.246Z,90.90
2019-05-10T22:09:55.770Z,91.10
2019-05-10T22:12:27.782Z,91.30
2019-05-10T22:14:56.315Z,91.60
2019-05-10T22:17:25.141Z,91.70
2019-05-10T22:19:53.605Z,91.70
2019-05-10T22:22:22.185Z,91.60
2019-05-10T22:24:50.640Z,91.60
2019-05-10T22:27:19.105Z,91.80
2019-05-10T22:29:48.042Z,91.90
2019-05-10T22:32:18.592Z,92.30
2019-05-10T22:34:47.184Z,92.30
2019-05-10T22:37:15.751Z,92.30
2019-05-10T22:39:51.792Z,92.50
2019-05-10T22:42:20.537Z,93.00
2019-05-10T22:44:49.016Z,92.80
2019-05-10T22:47:19.147Z,92.70
2019-05-10T22:49:47.669Z,92.70
2019-05-10T22:52:16.165Z,92.70
2019-05-10T22:54:49.423Z,93.10
2019-05-10T22:57:18.037Z,93.50
2019-05-10T22:59:46.567Z,93.60
2019-05-10T23:02:15.116Z,93.30
2019-05-10T23:04:43.572Z,93.00
2019-05-10T23:07:12.044Z,92.80
2019-05-10T23:09:40.495Z,93.00
2019-05-10T23:12:08.955Z,94.30
2019-05-10T23:14:37.418Z,94.50
2019-05-10T23:17:05.906Z,94.80
2019-05-10T23:19:34.474Z,94.90
2019-05-10T23:22:03.008Z,94.90
2019-05-10T23:24:39.055Z,94.90
2019-05-10T23:27:08.463Z,95.20
2019-05-10T23:29:37.469Z,95.20
2019-05-10T23:32:05.925Z,95.70
2019-05-10T23:34:34.405Z,95.80
2019-05-10T23:37:02.860Z,96.40
2019-05-10T23:39:40.152Z,96.70
2019-05-10T23:42:01.964Z,96.70
2019-05-10T23:44:30.512Z,96.80
2019-05-10T23:46:59.033Z,97.00
2019-05-10T23:49:27.509Z,97.00
2019-05-10T23:51:56.029Z,97.00
2019-05-10T23:54:26.028Z,97.10
2019-05-10T23:56:54.853Z,97.30
2019-05-10T23:59:23.345Z,97.20
